Time;durP1;ratioP1;P1;durP2;ratioP2;P2;SDS_P1;SDS_P2;PMS_P1;PMS_P2;Temp;Humidity;BMP_temperature;BMP_pressure;BME280_temperature;BME280_humidity;BME280_pressure;Samples;Min_cycle;Max_cycle;Signal;HPM_P1;HPM_P2
2022/08/29 00:01:20;;;;;;;1999.90;999.90;;;;;;;;;;5057414;28;20382;-71
2022/08/29 00:03:49;;;;;;;1999.90;999.90;;;;;;;;;;5062498;28;20399;-72
2022/08/29 00:06:17;;;;;;;1999.90;999.90;;;;;;;;;;5065923;28;20801;-72
2022/08/29 00:08:46;;;;;;;1999.90;999.90;;;;;;;;;;5067816;28;20397;-72
2022/08/29 00:11:14;;;;;;;1999.90;999.90;;;;;;;;;;5060393;28;21372;-73
2022/08/29 00:13:42;;;;;;;1999.90;999.90;;;;;;;;;;5058409;28;20462;-72
2022/08/29 00:16:10;;;;;;;1999.90;999.90;;;;;;;;;;5058008;28;20813;-73
2022/08/29 00:18:37;;;;;;;1999.90;999.90;;;;;;;;;;5066650;28;20392;-73
2022/08/29 00:21:05;;;;;;;1999.90;999.90;;;;;;;;;;5055983;28;20396;-72
2022/08/29 00:23:33;;;;;;;1999.90;999.90;;;;;;;;;;5066332;28;20440;-72
2022/08/29 00:26:02;;;;;;;1999.90;999.90;;;;;;;;;;5057205;28;20375;-72
2022/08/29 00:28:30;;;;;;;1999.90;999.90;;;;;;;;;;5061049;28;20383;-73
2022/08/29 00:30:58;;;;;;;1999.90;999.90;;;;;;;;;;5058292;28;20383;-72
2022/08/29 00:33:25;;;;;;;1999.90;999.90;;;;;;;;;;5065429;28;20405;-72
2022/08/29 00:35:53;;;;;;;1999.90;999.90;;;;;;;;;;5060647;28;20387;-73
2022/08/29 00:38:23;;;;;;;1999.90;999.90;;;;;;;;;;5043470;28;20881;-72
2022/08/29 00:40:56;;;;;;;1999.90;999.90;;;;;;;;;;5057666;28;20894;-72
2022/08/29 00:43:26;;;;;;;1999.90;999.90;;;;;;;;;;5055586;28;20771;-72
2022/08/29 00:46:00;;;;;;;1999.90;999.90;;;;;;;;;;5054943;28;20425;-72
2022/08/29 00:48:28;;;;;;;1999.90;999.90;;;;;;;;;;5057626;28;20409;-72
2022/08/29 00:50:58;;;;;;;1999.90;999.90;;;;;;;;;;5078101;28;20478;-72
2022/08/29 00:53:28;;;;;;;1999.90;999.90;;;;;;;;;;5072861;28;20535;-73
2022/08/29 00:55:57;;;;;;;1999.90;999.90;;;;;;;;;;5050097;28;20387;-72
2022/08/29 00:58:28;;;;;;;1999.90;999.90;;;;;;;;;;5057936;28;20406;-72
2022/08/29 01:00:57;;;;;;;1999.90;999.90;;;;;;;;;;5055052;28;20844;-72
2022/08/29 01:03:25;;;;;;;1999.90;999.90;;;;;;;;;;5055379;28;20406;-71
2022/08/29 01:05:53;;;;;;;1999.90;999.90;;;;;;;;;;5058674;28;20375;-71
2022/08/29 01:08:20;;;;;;;1999.90;999.90;;;;;;;;;;5044993;28;20431;-73
2022/08/29 01:13:37;;;;;;;1999.90;999.90;;;;;;;;;;5057033;28;20426;-72
2022/08/29 01:16:06;;;;;;;1999.90;999.90;;;;;;;;;;5063111;28;20394;-72
2022/08/29 01:18:35;;;;;;;1999.90;999.90;;;;;;;;;;5061404;28;20400;-73
2022/08/29 01:21:06;;;;;;;1999.90;999.90;;;;;;;;;;5062304;28;20461;-72
2022/08/29 01:23:39;;;;;;;1999.90;999.90;;;;;;;;;;5061009;28;20512;-73
2022/08/29 01:26:09;;;;;;;1999.90;999.90;;;;;;;;;;5061282;28;20883;-72
2022/08/29 01:28:39;;;;;;;1999.90;999.90;;;;;;;;;;5059936;28;20388;-73
2022/08/29 01:31:09;;;;;;;1999.90;999.90;;;;;;;;;;5062541;28;20391;-72
2022/08/29 01:33:40;;;;;;;1999.90;999.90;;;;;;;;;;5056481;28;20917;-72
2022/08/29 01:36:09;;;;;;;1999.90;999.90;;;;;;;;;;5070735;28;20394;-73
2022/08/29 01:38:37;;;;;;;1999.90;999.90;;;;;;;;;;5062354;28;20391;-73
2022/08/29 01:41:05;;;;;;;1999.90;999.90;;;;;;;;;;5060761;28;20386;-72
2022/08/29 01:43:38;;;;;;;1999.90;999.90;;;;;;;;;;5071786;28;20447;-73
2022/08/29 01:46:06;;;;;;;1999.90;999.90;;;;;;;;;;5074729;28;20401;-72
2022/08/29 01:48:35;;;;;;;1999.90;999.90;;;;;;;;;;5065599;28;20875;-72
2022/08/29 01:51:03;;;;;;;1999.90;999.90;;;;;;;;;;5058445;28;20401;-72
2022/08/29 01:53:31;;;;;;;1999.90;999.90;;;;;;;;;;5062644;28;20904;-72
2022/08/29 01:55:59;;;;;;;1999.90;999.90;;;;;;;;;;5048147;28;20414;-72
2022/08/29 01:58:27;;;;;;;1999.90;999.90;;;;;;;;;;5065455;28;20394;-72
2022/08/29 02:00:57;;;;;;;1999.90;999.90;;;;;;;;;;5061197;28;20407;-71
2022/08/29 02:03:25;;;;;;;1999.90;999.90;;;;;;;;;;5066586;28;20408;-72
2022/08/29 02:05:52;;;;;;;1999.90;999.90;;;;;;;;;;5066299;28;20242;-72
2022/08/29 02:08:20;;;;;;;1999.90;999.90;;;;;;;;;;5060291;28;20409;-71
2022/08/29 02:10:48;;;;;;;1999.90;999.90;;;;;;;;;;5078161;28;20224;-71
2022/08/29 02:13:16;;;;;;;1999.90;999.90;;;;;;;;;;5069723;28;20706;-72
2022/08/29 02:15:44;;;;;;;1999.90;999.90;;;;;;;;;;5061448;28;20381;-72
2022/08/29 02:18:13;;;;;;;1999.90;999.90;;;;;;;;;;5067636;28;20605;-72
2022/08/29 02:20:41;;;;;;;1999.90;999.90;;;;;;;;;;5059927;28;20400;-71
2022/08/29 02:23:09;;;;;;;1999.90;999.90;;;;;;;;;;5048599;28;20408;-72
2022/08/29 02:25:56;;;;;;;1999.90;999.90;;;;;;;;;;5063396;28;20236;-71
2022/08/29 02:28:24;;;;;;;1999.90;999.90;;;;;;;;;;5047961;28;20224;-72
2022/08/29 02:30:52;;;;;;;1999.90;999.90;;;;;;;;;;5058466;28;20479;-72
2022/08/29 02:33:25;;;;;;;1999.90;999.90;;;;;;;;;;5065089;28;20285;-72
2022/08/29 02:35:55;;;;;;;1999.90;999.90;;;;;;;;;;5066994;28;20242;-72
2022/08/29 02:38:23;;;;;;;1999.90;999.90;;;;;;;;;;5066799;28;20228;-72
2022/08/29 02:40:51;;;;;;;1999.90;999.90;;;;;;;;;;5067272;28;20325;-72
2022/08/29 02:43:20;;;;;;;1999.90;999.90;;;;;;;;;;5050313;28;20248;-72
2022/08/29 02:45:48;;;;;;;1999.90;999.90;;;;;;;;;;5081410;28;20722;-72
2022/08/29 02:48:16;;;;;;;1999.90;999.90;;;;;;;;;;5067744;28;20231;-72
2022/08/29 02:50:46;;;;;;;1999.90;999.90;;;;;;;;;;5065243;28;20236;-72
2022/08/29 02:53:16;;;;;;;1999.90;999.90;;;;;;;;;;5061678;28;20231;-72
2022/08/29 02:55:43;;;;;;;1999.90;999.90;;;;;;;;;;5063826;28;20582;-71
2022/08/29 02:58:12;;;;;;;1999.90;999.90;;;;;;;;;;5071052;28;20224;-72
2022/08/29 03:00:41;;;;;;;1999.90;999.90;;;;;;;;;;5065945;28;20239;-73
2022/08/29 03:03:09;;;;;;;1999.90;999.90;;;;;;;;;;5065364;28;20707;-72
2022/08/29 03:05:36;;;;;;;1999.90;999.90;;;;;;;;;;5064716;28;20223;-71
2022/08/29 03:08:07;;;;;;;1999.90;999.90;;;;;;;;;;5071217;28;20228;-71
2022/08/29 03:10:35;;;;;;;1999.90;999.90;;;;;;;;;;5061590;28;20224;-72
2022/08/29 03:13:03;;;;;;;1999.90;999.90;;;;;;;;;;5069733;28;20988;-71
2022/08/29 03:15:31;;;;;;;1999.90;999.90;;;;;;;;;;5065020;28;20224;-71
2022/08/29 03:17:59;;;;;;;1999.90;999.90;;;;;;;;;;5065200;28;20232;-72
2022/08/29 03:20:27;;;;;;;1999.90;999.90;;;;;;;;;;5063495;28;20595;-72
2022/08/29 03:22:54;;;;;;;1999.90;999.90;;;;;;;;;;5059973;28;20225;-70
2022/08/29 03:25:24;;;;;;;1999.90;999.90;;;;;;;;;;5063610;28;20323;-71
2022/08/29 03:27:51;;;;;;;1999.90;999.90;;;;;;;;;;5062120;28;20239;-71
2022/08/29 03:30:20;;;;;;;1999.90;999.90;;;;;;;;;;5048361;28;20228;-71
2022/08/29 03:32:50;;;;;;;1999.90;999.90;;;;;;;;;;5062064;28;20228;-72
2022/08/29 03:35:18;;;;;;;1999.90;999.90;;;;;;;;;;5061301;28;20404;-72
2022/08/29 03:37:46;;;;;;;1999.90;999.90;;;;;;;;;;5065454;28;20490;-71
2022/08/29 03:40:14;;;;;;;1999.90;999.90;;;;;;;;;;5068128;28;21162;-72
2022/08/29 03:42:43;;;;;;;1999.90;999.90;;;;;;;;;;5069088;28;20263;-70
2022/08/29 03:45:12;;;;;;;1999.90;999.90;;;;;;;;;;5067703;28;20230;-71
2022/08/29 03:47:41;;;;;;;1999.90;999.90;;;;;;;;;;5063025;28;20239;-72
2022/08/29 03:50:09;;;;;;;1999.90;999.90;;;;;;;;;;5064992;28;20232;-71
2022/08/29 03:52:38;;;;;;;1999.90;999.90;;;;;;;;;;5062111;28;20281;-73
2022/08/29 03:55:06;;;;;;;1999.90;999.90;;;;;;;;;;5063035;28;21018;-73
2022/08/29 03:57:34;;;;;;;1999.90;999.90;;;;;;;;;;5070423;28;20228;-74
2022/08/29 04:00:09;;;;;;;1999.90;999.90;;;;;;;;;;5046376;28;20232;-73
2022/08/29 04:02:38;;;;;;;1999.90;999.90;;;;;;;;;;5056007;28;20251;-73
2022/08/29 04:05:08;;;;;;;1999.90;999.90;;;;;;;;;;5059957;28;20232;-73
2022/08/29 04:07:41;;;;;;;1999.90;999.90;;;;;;;;;;5065424;28;20722;-72
2022/08/29 04:10:10;;;;;;;1999.90;999.90;;;;;;;;;;5082854;28;20229;-73
2022/08/29 04:12:37;;;;;;;1999.90;999.90;;;;;;;;;;5059100;28;20235;-74
2022/08/29 04:15:07;;;;;;;1999.90;999.90;;;;;;;;;;5064585;28;20227;-74
2022/08/29 04:17:36;;;;;;;1999.90;999.90;;;;;;;;;;5063389;28;20247;-73
2022/08/29 04:20:20;;;;;;;1999.90;999.90;;;;;;;;;;5061208;28;20394;-73
2022/08/29 04:22:52;;;;;;;1999.90;999.90;;;;;;;;;;5061778;28;21563;-72
2022/08/29 04:25:21;;;;;;;1999.90;999.90;;;;;;;;;;5062127;28;20232;-73
2022/08/29 04:27:49;;;;;;;1999.90;999.90;;;;;;;;;;5065152;28;20230;-75
2022/08/29 04:30:19;;;;;;;1999.90;999.90;;;;;;;;;;5065683;28;20223;-73
2022/08/29 04:32:47;;;;;;;1999.90;999.90;;;;;;;;;;5058891;28;20233;-73
2022/08/29 04:35:16;;;;;;;1999.90;999.90;;;;;;;;;;5058159;28;20255;-73
2022/08/29 04:37:44;;;;;;;1999.90;999.90;;;;;;;;;;5054596;28;20707;-72
2022/08/29 04:40:14;;;;;;;1999.90;999.90;;;;;;;;;;5062379;28;20228;-73
2022/08/29 04:42:42;;;;;;;1999.90;999.90;;;;;;;;;;5063389;28;20455;-73
2022/08/29 04:45:11;;;;;;;1999.90;999.90;;;;;;;;;;5063674;28;20236;-73
2022/08/29 04:47:42;;;;;;;1999.90;999.90;;;;;;;;;;5062333;28;20307;-73
2022/08/29 04:50:11;;;;;;;1999.90;999.90;;;;;;;;;;5066754;28;20254;-73
2022/08/29 04:52:39;;;;;;;1999.90;999.90;;;;;;;;;;5055784;28;21339;-75
2022/08/29 04:55:08;;;;;;;1999.90;999.90;;;;;;;;;;5045805;28;20302;-75
2022/08/29 04:57:37;;;;;;;1999.90;999.90;;;;;;;;;;5060705;28;20235;-74
2022/08/29 05:00:05;;;;;;;1999.90;999.90;;;;;;;;;;5062754;28;20225;-74
2022/08/29 05:02:33;;;;;;;1999.90;999.90;;;;;;;;;;5058456;28;20235;-76
2022/08/29 05:05:02;;;;;;;1999.90;999.90;;;;;;;;;;5060030;28;20294;-75
2022/08/29 05:07:30;;;;;;;1999.90;999.90;;;;;;;;;;5062972;28;20289;-74
2022/08/29 05:10:00;;;;;;;1999.90;999.90;;;;;;;;;;5060776;28;20327;-76
2022/08/29 05:12:28;;;;;;;1999.90;999.90;;;;;;;;;;5063581;28;20223;-75
2022/08/29 05:14:56;;;;;;;1999.90;999.90;;;;;;;;;;5051530;28;20232;-75
2022/08/29 05:17:24;;;;;;;1999.90;999.90;;;;;;;;;;5071292;28;20234;-74
2022/08/29 05:19:52;;;;;;;1999.90;999.90;;;;;;;;;;5058134;28;20240;-74
2022/08/29 05:22:21;;;;;;;1999.90;999.90;;;;;;;;;;5062804;28;20238;-75
2022/08/29 05:24:49;;;;;;;1999.90;999.90;;;;;;;;;;5058861;28;20344;-74
2022/08/29 05:27:18;;;;;;;1999.90;999.90;;;;;;;;;;5058768;28;20232;-75
2022/08/29 05:29:47;;;;;;;1999.90;999.90;;;;;;;;;;5061636;28;20233;-75
2022/08/29 05:32:16;;;;;;;1999.90;999.90;;;;;;;;;;5069618;28;20228;-75
2022/08/29 05:34:46;;;;;;;1999.90;999.90;;;;;;;;;;5064258;28;20256;-74
2022/08/29 05:37:15;;;;;;;1999.90;999.90;;;;;;;;;;5059876;28;20234;-75
2022/08/29 05:39:45;;;;;;;1999.90;999.90;;;;;;;;;;5069086;28;20228;-75
2022/08/29 05:42:12;;;;;;;1999.90;999.90;;;;;;;;;;5066241;28;20764;-75
2022/08/29 05:44:40;;;;;;;1999.90;999.90;;;;;;;;;;5064133;28;20230;-75
2022/08/29 05:47:09;;;;;;;1999.90;999.90;;;;;;;;;;5062825;28;20243;-74
2022/08/29 05:49:37;;;;;;;1999.90;999.90;;;;;;;;;;5070508;28;20227;-74
2022/08/29 05:52:06;;;;;;;1999.90;999.90;;;;;;;;;;5060126;28;20240;-75
2022/08/29 05:54:35;;;;;;;1999.90;999.90;;;;;;;;;;5069421;28;20227;-75
2022/08/29 05:57:04;;;;;;;1999.90;999.90;;;;;;;;;;5067996;28;20327;-75
2022/08/29 05:59:32;;;;;;;1999.90;999.90;;;;;;;;;;5066542;28;20659;-75
2022/08/29 06:01:59;;;;;;;1999.90;999.90;;;;;;;;;;5064401;28;20232;-75
2022/08/29 06:04:27;;;;;;;1999.90;999.90;;;;;;;;;;5067732;28;20716;-75
2022/08/29 06:06:55;;;;;;;1999.90;999.90;;;;;;;;;;5061362;28;20232;-75
2022/08/29 06:09:22;;;;;;;1999.90;999.90;;;;;;;;;;5064221;28;20232;-75
2022/08/29 06:11:51;;;;;;;1999.90;999.90;;;;;;;;;;5062371;28;20232;-75
2022/08/29 06:14:21;;;;;;;1999.90;999.90;;;;;;;;;;5057188;28;20230;-75
2022/08/29 06:16:48;;;;;;;1999.90;999.90;;;;;;;;;;5066404;28;20748;-75
2022/08/29 06:19:16;;;;;;;1999.90;999.90;;;;;;;;;;5064327;28;20296;-75
2022/08/29 06:21:44;;;;;;;1999.90;999.90;;;;;;;;;;5085462;28;21015;-74
2022/08/29 06:24:13;;;;;;;1999.90;999.90;;;;;;;;;;5067723;28;20255;-72
2022/08/29 06:26:41;;;;;;;1999.90;999.90;;;;;;;;;;5064478;28;20318;-74
2022/08/29 06:29:09;;;;;;;1999.90;999.90;;;;;;;;;;5068351;28;20235;-74
2022/08/29 06:31:38;;;;;;;1999.90;999.90;;;;;;;;;;5064589;28;20270;-75
2022/08/29 06:34:06;;;;;;;1999.90;999.90;;;;;;;;;;5062434;28;20232;-74
2022/08/29 06:36:34;;;;;;;1999.90;999.90;;;;;;;;;;5058446;28;20247;-74
2022/08/29 06:39:06;;;;;;;1999.90;999.90;;;;;;;;;;5068321;28;20225;-74
2022/08/29 06:41:34;;;;;;;1999.90;999.90;;;;;;;;;;5064288;28;20259;-75
2022/08/29 06:44:06;;;;;;;1999.90;999.90;;;;;;;;;;5053828;28;20317;-73
2022/08/29 06:46:34;;;;;;;1999.90;999.90;;;;;;;;;;5062170;28;20730;-74
2022/08/29 06:49:05;;;;;;;1999.90;999.90;;;;;;;;;;5068492;28;20282;-74
2022/08/29 06:51:34;;;;;;;1999.90;999.90;;;;;;;;;;5060247;28;20711;-74
2022/08/29 06:54:03;;;;;;;1999.90;999.90;;;;;;;;;;5065928;28;20235;-74
2022/08/29 06:56:33;;;;;;;1999.90;999.90;;;;;;;;;;5058458;28;20231;-74
2022/08/29 06:59:03;;;;;;;1999.90;999.90;;;;;;;;;;5072864;28;20224;-72
2022/08/29 07:01:31;;;;;;;1999.90;999.90;;;;;;;;;;5068768;28;20231;-74
2022/08/29 07:04:00;;;;;;;1999.90;999.90;;;;;;;;;;5065460;28;20730;-75
2022/08/29 07:06:30;;;;;;;1999.90;999.90;;;;;;;;;;5069631;28;20239;-74
2022/08/29 07:08:59;;;;;;;1999.90;999.90;;;;;;;;;;5057371;28;20703;-74
2022/08/29 07:11:28;;;;;;;1999.90;999.90;;;;;;;;;;5069150;28;20224;-74
2022/08/29 07:13:57;;;;;;;1999.90;999.90;;;;;;;;;;5064432;28;20221;-74
2022/08/29 07:16:24;;;;;;;1999.90;999.90;;;;;;;;;;5079797;28;20243;-74
2022/08/29 07:18:53;;;;;;;1999.90;999.90;;;;;;;;;;5063506;28;20235;-73
2022/08/29 07:21:22;;;;;;;1999.90;999.90;;;;;;;;;;5068262;28;20670;-74
2022/08/29 07:23:52;;;;;;;1999.90;999.90;;;;;;;;;;5059088;28;20240;-74
2022/08/29 07:26:21;;;;;;;1999.90;999.90;;;;;;;;;;5060922;28;20236;-76
2022/08/29 07:28:50;;;;;;;1999.90;999.90;;;;;;;;;;5064751;28;20220;-74
2022/08/29 07:31:18;;;;;;;1999.90;999.90;;;;;;;;;;5064328;28;20239;-73
2022/08/29 07:33:46;;;;;;;1999.90;999.90;;;;;;;;;;5064786;28;20242;-74
2022/08/29 07:36:21;;;;;;;1999.90;999.90;;;;;;;;;;5060492;28;20238;-75
2022/08/29 07:38:48;;;;;;;1999.90;999.90;;;;;;;;;;5066568;28;20286;-75
2022/08/29 07:41:18;;;;;;;1999.90;999.90;;;;;;;;;;5082289;28;20588;-74
2022/08/29 07:43:46;;;;;;;1999.90;999.90;;;;;;;;;;5078628;28;20760;-75
2022/08/29 07:46:14;;;;;;;1999.90;999.90;;;;;;;;;;5063291;28;21521;-75
2022/08/29 07:48:43;;;;;;;1999.90;999.90;;;;;;;;;;5069387;28;20335;-74
2022/08/29 07:51:11;;;;;;;1999.90;999.90;;;;;;;;;;5063565;28;20243;-74
2022/08/29 07:53:39;;;;;;;1999.90;999.90;;;;;;;;;;5051083;28;20239;-74
2022/08/29 07:56:08;;;;;;;1999.90;999.90;;;;;;;;;;5066180;28;20375;-74
2022/08/29 07:58:37;;;;;;;1999.90;999.90;;;;;;;;;;5072317;28;20227;-74
2022/08/29 08:01:07;;;;;;;1999.90;999.90;;;;;;;;;;5077770;28;30901;-74
2022/08/29 08:03:41;;;;;;;1999.90;999.90;;;;;;;;;;5082067;28;20239;-74
2022/08/29 08:06:09;;;;;;;1999.90;999.90;;;;;;;;;;5089138;28;20896;-74
2022/08/29 08:08:38;;;;;;;1999.90;999.90;;;;;;;;;;5079330;28;20477;-75
2022/08/29 08:11:07;;;;;;;1999.90;999.90;;;;;;;;;;5065535;28;20232;-74
2022/08/29 08:13:35;;;;;;;1999.90;999.90;;;;;;;;;;5090688;28;20610;-75
2022/08/29 08:16:06;;;;;;;1999.90;999.90;;;;;;;;;;5087691;28;20393;-74
2022/08/29 08:18:34;;;;;;;1999.90;999.90;;;;;;;;;;5082671;28;20232;-75
2022/08/29 08:21:02;;;;;;;1999.90;999.90;;;;;;;;;;5080836;28;20227;-74
2022/08/29 08:23:30;;;;;;;1999.90;999.90;;;;;;;;;;5082840;28;20239;-74
2022/08/29 08:25:58;;;;;;;1999.90;999.90;;;;;;;;;;5081092;28;20271;-74
2022/08/29 08:28:27;;;;;;;1999.90;999.90;;;;;;;;;;5083936;28;20988;-75
2022/08/29 08:30:55;;;;;;;1999.90;999.90;;;;;;;;;;5083220;28;20239;-74
2022/08/29 08:33:25;;;;;;;1999.90;999.90;;;;;;;;;;5078811;28;20324;-75
2022/08/29 08:35:53;;;;;;;1999.90;999.90;;;;;;;;;;5083402;28;20227;-75
2022/08/29 08:38:21;;;;;;;1999.90;999.90;;;;;;;;;;5078143;28;20227;-73
2022/08/29 08:40:55;;;;;;;1999.90;999.90;;;;;;;;;;5087896;28;20257;-74
2022/08/29 08:43:26;;;;;;;1999.90;999.90;;;;;;;;;;5081773;28;20249;-74
2022/08/29 08:45:54;;;;;;;1999.90;999.90;;;;;;;;;;5096898;27;20239;-75
2022/08/29 08:48:24;;;;;;;1999.90;999.90;;;;;;;;;;5078628;28;21019;-75
2022/08/29 08:50:55;;;;;;;1999.90;999.90;;;;;;;;;;5075593;28;20231;-75
2022/08/29 08:53:28;;;;;;;1999.90;999.90;;;;;;;;;;5081487;28;20227;-74
2022/08/29 08:55:58;;;;;;;1999.90;999.90;;;;;;;;;;5082438;28;20234;-75
2022/08/29 08:58:31;;;;;;;1999.90;999.90;;;;;;;;;;5091181;27;20234;-75
2022/08/29 09:01:00;;;;;;;1999.90;999.90;;;;;;;;;;5077585;28;20227;-74
2022/08/29 09:03:42;;;;;;;1999.90;999.90;;;;;;;;;;5083433;28;20699;-74
2022/08/29 09:06:15;;;;;;;1999.90;999.90;;;;;;;;;;5076489;28;20234;-75
2022/08/29 09:08:47;;;;;;;1999.90;999.90;;;;;;;;;;5077802;28;20711;-75
2022/08/29 09:11:18;;;;;;;1999.90;999.90;;;;;;;;;;5082268;28;20224;-73
2022/08/29 09:13:52;;;;;;;1999.90;999.90;;;;;;;;;;5082708;28;20231;-74
2022/08/29 09:16:22;;;;;;;1999.90;999.90;;;;;;;;;;5075800;28;20239;-74
2022/08/29 09:18:52;;;;;;;1999.90;999.90;;;;;;;;;;5077694;28;20713;-75
2022/08/29 09:21:23;;;;;;;1999.90;999.90;;;;;;;;;;5085478;28;20233;-74
2022/08/29 09:24:10;;;;;;;1999.90;999.90;;;;;;;;;;5081492;28;20318;-74
2022/08/29 09:26:39;;;;;;;1999.90;999.90;;;;;;;;;;5083110;28;21026;-74
2022/08/29 09:29:08;;;;;;;1999.90;999.90;;;;;;;;;;5081803;28;20239;-73
2022/08/29 09:31:36;;;;;;;1999.90;999.90;;;;;;;;;;5077439;28;20231;-75
2022/08/29 09:34:06;;;;;;;1999.90;999.90;;;;;;;;;;5082598;28;20629;-76
2022/08/29 09:36:41;;;;;;;1999.90;999.90;;;;;;;;;;5064668;28;20724;-74
2022/08/29 09:39:15;;;;;;;1999.90;999.90;;;;;;;;;;5086035;28;20230;-76
2022/08/29 09:41:43;;;;;;;1999.90;999.90;;;;;;;;;;5076853;28;21025;-75
2022/08/29 09:44:13;;;;;;;1999.90;999.90;;;;;;;;;;5086119;28;20242;-75
2022/08/29 09:46:41;;;;;;;1999.90;999.90;;;;;;;;;;5088721;28;20234;-76
2022/08/29 09:49:12;;;;;;;1999.90;999.90;;;;;;;;;;5083914;28;20228;-75
2022/08/29 09:51:42;;;;;;;1999.90;999.90;;;;;;;;;;5083530;28;20314;-75
2022/08/29 09:54:12;;;;;;;1999.90;999.90;;;;;;;;;;5086912;28;21195;-76
2022/08/29 09:56:48;;;;;;;1999.90;999.90;;;;;;;;;;5085812;28;20237;-75
2022/08/29 09:59:19;;;;;;;1999.90;999.90;;;;;;;;;;5098307;27;20717;-75
2022/08/29 10:01:47;;;;;;;1999.90;999.90;;;;;;;;;;5081455;28;20231;-75
2022/08/29 10:04:32;;;;;;;1999.90;999.90;;;;;;;;;;5087730;28;20239;-75
2022/08/29 10:07:09;;;;;;;1999.90;999.90;;;;;;;;;;5062067;28;20233;-75
2022/08/29 10:09:37;;;;;;;1999.90;999.90;;;;;;;;;;5086208;28;20309;-76
2022/08/29 10:12:08;;;;;;;1999.90;999.90;;;;;;;;;;5103052;27;20228;-75
2022/08/29 10:14:38;;;;;;;1999.90;999.90;;;;;;;;;;5083346;28;20605;-76
2022/08/29 10:19:54;;;;;;;1999.90;999.90;;;;;;;;;;5079965;28;20228;-75
2022/08/29 10:22:29;;;;;;;1999.90;999.90;;;;;;;;;;5086716;28;20342;-76
2022/08/29 10:25:00;;;;;;;1999.90;999.90;;;;;;;;;;5084764;28;20238;-76
2022/08/29 10:27:31;;;;;;;1999.90;999.90;;;;;;;;;;5087676;28;20238;-76
2022/08/29 10:30:04;;;;;;;1999.90;999.90;;;;;;;;;;5107194;27;20276;-75
2022/08/29 10:32:41;;;;;;;1999.90;999.90;;;;;;;;;;5084408;28;20297;-76
2022/08/29 10:35:14;;;;;;;1999.90;999.90;;;;;;;;;;5085727;28;20671;-75
2022/08/29 10:37:53;;;;;;;1999.90;999.90;;;;;;;;;;5086702;28;20233;-75
2022/08/29 10:40:25;;;;;;;1999.90;999.90;;;;;;;;;;5082627;28;20223;-76
2022/08/29 10:42:57;;;;;;;1999.90;999.90;;;;;;;;;;5083709;28;20235;-75
2022/08/29 10:45:28;;;;;;;1999.90;999.90;;;;;;;;;;5084443;28;20776;-75
2022/08/29 10:47:59;;;;;;;1999.90;999.90;;;;;;;;;;5079579;28;20698;-75
2022/08/29 10:50:29;;;;;;;1999.90;999.90;;;;;;;;;;5088292;27;20227;-74
2022/08/29 10:53:16;;;;;;;1999.90;999.90;;;;;;;;;;5101304;27;20232;-76
2022/08/29 10:55:49;;;;;;;1999.90;999.90;;;;;;;;;;5073572;28;20231;-75
2022/08/29 10:58:23;;;;;;;1999.90;999.90;;;;;;;;;;5096419;28;21309;-76
2022/08/29 11:00:55;;;;;;;1999.90;999.90;;;;;;;;;;5088903;28;20222;-75
2022/08/29 11:03:28;;;;;;;1999.90;999.90;;;;;;;;;;5086206;28;20227;-76
2022/08/29 11:06:00;;;;;;;1999.90;999.90;;;;;;;;;;5084284;28;20231;-75
2022/08/29 11:08:33;;;;;;;1999.90;999.90;;;;;;;;;;5086179;28;20733;-76
2022/08/29 11:11:01;;;;;;;1999.90;999.90;;;;;;;;;;5087195;28;20226;-76
2022/08/29 11:13:31;;;;;;;1999.90;999.90;;;;;;;;;;5080956;28;20945;-75
2022/08/29 11:16:02;;;;;;;1999.90;999.90;;;;;;;;;;5084291;28;20239;-75
2022/08/29 11:18:33;;;;;;;1999.90;999.90;;;;;;;;;;5084203;28;20686;-76
2022/08/29 11:21:03;;;;;;;1999.90;999.90;;;;;;;;;;5089743;28;20232;-75
2022/08/29 11:23:38;;;;;;;1999.90;999.90;;;;;;;;;;5085073;28;20227;-75
2022/08/29 11:26:07;;;;;;;1999.90;999.90;;;;;;;;;;5061144;28;20241;-75
2022/08/29 11:28:38;;;;;;;1999.90;999.90;;;;;;;;;;5088806;28;20219;-76
2022/08/29 11:31:10;;;;;;;1999.90;999.90;;;;;;;;;;5083058;28;20232;-75
2022/08/29 11:33:41;;;;;;;1999.90;999.90;;;;;;;;;;5087959;28;20318;-75
2022/08/29 11:36:19;;;;;;;1999.90;999.90;;;;;;;;;;5082820;28;20250;-74
2022/08/29 11:38:57;;;;;;;1999.90;999.90;;;;;;;;;;5085858;28;20230;-76
2022/08/29 11:41:27;;;;;;;1999.90;999.90;;;;;;;;;;5097533;27;20223;-75
2022/08/29 11:44:03;;;;;;;1999.90;999.90;;;;;;;;;;5084184;28;20228;-75
2022/08/29 11:46:36;;;;;;;1999.90;999.90;;;;;;;;;;5082122;27;20953;-75
2022/08/29 11:49:23;;;;;;;1999.90;999.90;;;;;;;;;;5083546;28;20710;-75
2022/08/29 11:51:53;;;;;;;1999.90;999.90;;;;;;;;;;5084830;28;20241;-75
2022/08/29 11:54:44;;;;;;;1999.90;999.90;;;;;;;;;;5081622;28;20229;-75
2022/08/29 11:57:32;;;;;;;1999.90;999.90;;;;;;;;;;5081080;28;20231;-75
2022/08/29 12:00:04;;;;;;;1999.90;999.90;;;;;;;;;;5075618;28;20255;-76
2022/08/29 12:02:39;;;;;;;1999.90;999.90;;;;;;;;;;5080752;28;20280;-74
2022/08/29 12:05:40;;;;;;;1999.90;999.90;;;;;;;;;;5086234;28;20238;-75
2022/08/29 12:08:13;;;;;;;1999.90;999.90;;;;;;;;;;5095104;27;20231;-75
2022/08/29 12:11:01;;;;;;;1999.90;999.90;;;;;;;;;;5081263;28;20273;-75
2022/08/29 12:13:47;;;;;;;1999.90;999.90;;;;;;;;;;5095792;27;20247;-77
2022/08/29 12:16:18;;;;;;;1999.90;999.90;;;;;;;;;;5084545;28;20273;-75
2022/08/29 12:18:47;;;;;;;1999.90;999.90;;;;;;;;;;5092693;28;20272;-75
2022/08/29 12:21:43;;;;;;;1999.90;999.90;;;;;;;;;;5087499;28;21076;-75
2022/08/29 12:24:29;;;;;;;1999.90;999.90;;;;;;;;;;5088462;28;20535;-76
2022/08/29 12:26:56;;;;;;;1999.90;999.90;;;;;;;;;;5079799;28;20278;-75
2022/08/29 12:29:25;;;;;;;1999.90;999.90;;;;;;;;;;5087807;28;20232;-76
2022/08/29 12:32:04;;;;;;;1999.90;999.90;;;;;;;;;;5084182;28;20226;-75
2022/08/29 12:35:19;;;;;;;1999.90;999.90;;;;;;;;;;5100397;27;20996;-76
2022/08/29 12:37:56;;;;;;;1999.90;999.90;;;;;;;;;;5095221;28;20351;-75
2022/08/29 12:40:37;;;;;;;1999.90;999.90;;;;;;;;;;5079575;28;20318;-75
2022/08/29 12:43:19;;;;;;;1999.90;999.90;;;;;;;;;;5060294;28;20322;-74
2022/08/29 12:45:48;;;;;;;1999.90;999.90;;;;;;;;;;5085111;28;20246;-75
2022/08/29 12:48:20;;;;;;;1999.90;999.90;;;;;;;;;;5088472;28;21005;-76
2022/08/29 12:50:49;;;;;;;1999.90;999.90;;;;;;;;;;5075989;28;20244;-75
2022/08/29 12:53:19;;;;;;;1999.90;999.90;;;;;;;;;;5080456;28;20258;-75
2022/08/29 12:55:47;;;;;;;1999.90;999.90;;;;;;;;;;5087538;28;20245;-74
2022/08/29 12:58:30;;;;;;;1999.90;999.90;;;;;;;;;;5091835;28;20238;-75
2022/08/29 13:00:58;;;;;;;1999.90;999.90;;;;;;;;;;5083061;28;20234;-75
2022/08/29 13:03:27;;;;;;;1999.90;999.90;;;;;;;;;;5093740;27;20359;-75
2022/08/29 13:06:02;;;;;;;1999.90;999.90;;;;;;;;;;5080388;28;20500;-75
2022/08/29 13:08:32;;;;;;;1999.90;999.90;;;;;;;;;;5080260;28;20416;-76
2022/08/29 13:11:00;;;;;;;1999.90;999.90;;;;;;;;;;5085390;28;20431;-76
2022/08/29 13:13:28;;;;;;;1999.90;999.90;;;;;;;;;;5087133;28;20231;-75
2022/08/29 13:15:59;;;;;;;1999.90;999.90;;;;;;;;;;5082524;28;20751;-75
2022/08/29 13:18:28;;;;;;;1999.90;999.90;;;;;;;;;;5090169;27;20265;-76
2022/08/29 13:21:10;;;;;;;1999.90;999.90;;;;;;;;;;5082860;28;20231;-75
2022/08/29 13:23:44;;;;;;;1999.90;999.90;;;;;;;;;;5082438;28;20781;-75
2022/08/29 13:26:20;;;;;;;1999.90;999.90;;;;;;;;;;5085171;28;20647;-76
2022/08/29 13:28:49;;;;;;;1999.90;999.90;;;;;;;;;;5083628;28;21011;-76
2022/08/29 13:31:22;;;;;;;1999.90;999.90;;;;;;;;;;5088187;28;20409;-76
2022/08/29 13:34:05;;;;;;;1999.90;999.90;;;;;;;;;;5086351;27;20484;-76
2022/08/29 13:36:38;;;;;;;1999.90;999.90;;;;;;;;;;5058307;28;20785;-76
2022/08/29 13:39:26;;;;;;;1999.90;999.90;;;;;;;;;;5081283;28;20671;-76
2022/08/29 13:42:08;;;;;;;1999.90;999.90;;;;;;;;;;5073372;28;20231;-76
2022/08/29 13:44:38;;;;;;;1999.90;999.90;;;;;;;;;;5080012;28;20419;-76
2022/08/29 13:47:12;;;;;;;1999.90;999.90;;;;;;;;;;5082541;28;20447;-76
2022/08/29 13:49:40;;;;;;;1999.90;999.90;;;;;;;;;;5083629;28;20440;-76
2022/08/29 13:52:10;;;;;;;1999.90;999.90;;;;;;;;;;5078011;28;20415;-76
2022/08/29 13:54:39;;;;;;;1999.90;999.90;;;;;;;;;;5084087;28;21427;-77
2022/08/29 13:57:11;;;;;;;1999.90;999.90;;;;;;;;;;5076364;28;20471;-77
2022/08/29 13:59:39;;;;;;;1999.90;999.90;;;;;;;;;;5084412;28;20393;-76
2022/08/29 14:02:07;;;;;;;1999.90;999.90;;;;;;;;;;5086188;28;20357;-75
2022/08/29 14:04:37;;;;;;;1999.90;999.90;;;;;;;;;;5104526;27;20428;-75
2022/08/29 14:07:08;;;;;;;1999.90;999.90;;;;;;;;;;5080982;28;20412;-75